weather.gov     
National Weather Service

Terminal Aerodrome Forecast
NWS Homepage
This page is being discontinued on March 12, 2014.
The same data is available at this site. Please update your bookmarks.
Thank you, and we apologize for the inconvenience.
Please send an email to SR-SRH.Webmaster@noaa.gov with any concerns.


Current Version
Previous Version:    01  02  03  04  05  06  07  08  09  10  11  12  13  14  15  16  17  18  19  20  21  22  23  24  25  26  27  28  29  30  
   31  32  33  34  35  36  37  38  39  40  41  
[Printable]
956
FTUS46 KOTX 210529
TAFLWS
TAF
KLWS 210529Z 2106/2206 13008KT P6SM -RA OVC050
     FM210900 19012KT 6SM -RA BR BKN020 OVC035 WS020/25038KT
     FM211200 24018G26KT P6SM -RA SCT020 BKN040 OVC050
     FM212000 25018G24KT P6SM SCT040 OVC090
     FM220000 25012KT P6SM SCT050 BKN080=




U.S. Dept. of Commerce
NOAA National Weather Service
1325 East West Highway
Silver Spring, MD 20910
E-mail: w-nws.webmaster@noaa.gov
Page last modified: May 16, 2007
NATIONAL WEATHER SERVICE: for Safety, for Work, for Fun - FOR LIFE